Martha Mills, Kentucky
Current Conditions -  °F | °C
As of 7:15 AM on Friday 21 Nov 2014 (Local Time) from KFGX Reporting Station
Clear Clear  
Wind Chill: 18°   Ceiling: Unl
Heat Index: 18°   Visibility: 10mi
Dew Point: 14°   Wind: 0mph
Humidity: 83%   Direction: NA
Pressure: 30.45"   Gusts: NA
Location:  38.436°N, 83.6931°W
Report Text: KFGX 211215Z AUTO 00000KT 10SM CLR M08/M10 A3045 RMK AO2 T10761101
Loading
Personal Weather Stations






























Interactive Weather Map New forecast layout! Learn more

10-Day Weather Forecast

Advertisements
Track Severe Weather on mobile